Time;durP1;ratioP1;P1;durP2;ratioP2;P2;SDS_P1;SDS_P2;PMS_P1;PMS_P2;Temp;Humidity;BMP_temperature;BMP_pressure;BME280_temperature;BME280_humidity;BME280_pressure;Samples;Min_cycle;Max_cycle;Signal;HPM_P1;HPM_P2
2021/05/05 04:01:25;;;;;;;1.85;1.80;;;7.30;99.90;;;;;;5502933;23;20236;-72
2021/05/05 04:03:52;;;;;;;3.22;1.65;;;7.30;99.90;;;;;;4937030;29;20214;-72
2021/05/05 04:06:18;;;;;;;2.20;2.10;;;7.30;99.90;;;;;;4937400;29;20218;-72
2021/05/05 04:08:44;;;;;;;1.55;1.20;;;7.30;99.90;;;;;;4937710;29;20213;-72
2021/05/05 04:11:10;;;;;;;1.95;1.85;;;7.40;99.90;;;;;;4937033;29;20242;-72
2021/05/05 04:13:36;;;;;;;1.58;1.45;;;7.40;99.90;;;;;;4937235;29;20225;-72
2021/05/05 04:16:03;;;;;;;1.50;1.48;;;7.40;99.90;;;;;;4937000;29;20220;-72
2021/05/05 04:18:30;;;;;;;2.67;1.77;;;7.50;99.90;;;;;;4936845;29;20298;-72
2021/05/05 04:21:00;;;;;;;1.65;1.35;;;7.50;99.90;;;;;;4937274;29;20238;-72
2021/05/05 04:23:26;;;;;;;2.38;1.65;;;7.50;99.90;;;;;;4936834;29;20700;-72
2021/05/05 04:25:53;;;;;;;1.58;1.35;;;7.50;99.90;;;;;;4937488;29;20234;-72
2021/05/05 04:28:19;;;;;;;2.60;1.33;;;7.50;99.90;;;;;;4936448;29;20210;-72
2021/05/05 04:30:45;;;;;;;0.90;0.90;;;7.60;99.90;;;;;;4936605;29;20268;-72
2021/05/05 04:33:11;;;;;;;2.40;1.15;;;7.60;99.90;;;;;;4936346;29;20221;-72
2021/05/05 04:35:38;;;;;;;2.85;1.42;;;7.60;99.90;;;;;;4936890;29;20697;-72
2021/05/05 04:38:05;;;;;;;1.70;1.60;;;7.60;99.90;;;;;;4936822;29;20216;-71
2021/05/05 04:40:31;;;;;;;2.35;1.40;;;7.60;99.90;;;;;;4936973;29;20237;-71
2021/05/05 04:42:57;;;;;;;1.77;1.67;;;7.60;99.90;;;;;;4936662;29;20277;-71
2021/05/05 04:45:23;;;;;;;2.15;1.00;;;7.70;99.90;;;;;;4936118;29;20237;-71
2021/05/05 04:47:49;;;;;;;2.88;1.85;;;7.70;99.90;;;;;;4936334;29;20210;-71
2021/05/05 04:50:16;;;;;;;1.17;1.17;;;7.70;99.90;;;;;;4936462;29;20214;-71
2021/05/05 04:52:43;;;;;;;1.20;1.20;;;7.70;99.90;;;;;;4936502;29;20210;-70
2021/05/05 04:55:11;;;;;;;2.25;1.40;;;7.70;99.90;;;;;;4936527;29;20221;-71
2021/05/05 04:57:37;;;;;;;1.50;1.50;;;7.70;99.90;;;;;;4936453;29;20217;-73
2021/05/05 05:00:04;;;;;;;2.42;1.20;;;7.70;99.90;;;;;;4935999;29;20205;-74
2021/05/05 05:02:31;;;;;;;4.63;1.10;;;7.70;99.90;;;;;;4936147;29;20241;-73
2021/05/05 05:04:57;;;;;;;1.55;1.45;;;7.70;99.90;;;;;;4936786;29;20241;-73
2021/05/05 05:07:23;;;;;;;3.17;1.60;;;7.70;99.90;;;;;;4936011;29;20213;-74
2021/05/05 05:09:50;;;;;;;5.38;2.08;;;7.70;99.90;;;;;;4936291;29;20214;-73
2021/05/05 05:12:16;;;;;;;1.85;1.60;;;7.70;99.90;;;;;;4935778;29;20230;-73
2021/05/05 05:14:42;;;;;;;4.65;1.35;;;7.70;99.90;;;;;;4935668;29;20202;-73
2021/05/05 05:17:09;;;;;;;1.20;1.20;;;7.70;99.90;;;;;;4935591;29;20206;-73
2021/05/05 05:19:35;;;;;;;1.23;1.23;;;7.70;99.90;;;;;;4935715;29;20221;-73
2021/05/05 05:22:01;;;;;;;3.08;1.30;;;7.80;99.90;;;;;;4935768;29;20253;-73
2021/05/05 05:24:27;;;;;;;1.85;1.48;;;7.80;99.90;;;;;;4935869;29;20245;-73
2021/05/05 05:26:54;;;;;;;3.80;1.60;;;7.90;99.90;;;;;;4935723;29;20210;-73
2021/05/05 05:29:21;;;;;;;2.05;1.15;;;7.90;99.90;;;;;;4935139;29;20313;-75
2021/05/05 05:31:48;;;;;;;1.52;1.30;;;7.90;99.90;;;;;;4935060;29;20785;-75
2021/05/05 05:34:14;;;;;;;1.48;1.38;;;8.00;99.90;;;;;;4935118;29;20596;-74
2021/05/05 05:36:40;;;;;;;1.25;1.25;;;8.00;99.90;;;;;;4935650;29;20582;-75
2021/05/05 05:39:07;;;;;;;3.80;1.20;;;8.00;99.90;;;;;;4935160;29;20214;-75
2021/05/05 05:41:34;;;;;;;6.13;1.92;;;8.10;99.90;;;;;;4935353;29;20229;-75
2021/05/05 05:44:01;;;;;;;5.25;1.50;;;8.10;99.90;;;;;;4935297;29;20210;-75
2021/05/05 05:46:27;;;;;;;1.92;1.20;;;8.10;99.90;;;;;;4934593;29;20210;-74
2021/05/05 05:48:53;;;;;;;0.95;0.95;;;8.20;99.90;;;;;;4935685;29;20265;-75
2021/05/05 05:51:20;;;;;;;1.58;1.33;;;8.10;99.90;;;;;;4935606;29;20237;-76
2021/05/05 05:53:46;;;;;;;1.05;0.98;;;8.10;99.90;;;;;;4935323;29;20213;-75
2021/05/05 05:56:12;;;;;;;2.17;1.45;;;8.10;99.90;;;;;;4935619;29;20317;-76
2021/05/05 05:58:38;;;;;;;0.95;0.95;;;8.20;99.90;;;;;;4935231;29;20210;-76
2021/05/05 06:01:05;;;;;;;1.75;1.30;;;8.20;99.90;;;;;;4934686;29;20376;-75
2021/05/05 06:03:32;;;;;;;1.42;1.38;;;8.20;99.90;;;;;;4934880;29;20218;-76
2021/05/05 06:05:58;;;;;;;4.30;3.90;;;8.30;99.90;;;;;;4935135;29;20234;-76
2021/05/05 06:08:25;;;;;;;1.42;1.23;;;8.30;99.90;;;;;;4935185;29;20209;-76
2021/05/05 06:10:51;;;;;;;2.08;1.20;;;8.30;99.90;;;;;;4935225;29;20229;-75
2021/05/05 06:13:17;;;;;;;1.85;1.70;;;8.30;99.90;;;;;;4934957;29;20214;-76
2021/05/05 06:15:44;;;;;;;1.40;1.30;;;8.30;99.90;;;;;;4934528;29;20228;-75
2021/05/05 06:18:11;;;;;;;1.33;1.23;;;8.30;99.90;;;;;;4934807;29;20217;-76
2021/05/05 06:20:38;;;;;;;1.92;1.30;;;8.30;99.90;;;;;;4934969;29;20320;-76
2021/05/05 06:23:04;;;;;;;3.13;1.60;;;8.20;99.90;;;;;;4934955;29;20300;-73
2021/05/05 06:25:31;;;;;;;3.78;1.42;;;8.20;99.90;;;;;;4934780;29;20233;-73
2021/05/05 06:27:57;;;;;;;3.17;1.25;;;8.20;99.90;;;;;;4934953;29;20705;-73
2021/05/05 06:30:24;;;;;;;1.55;1.50;;;8.20;99.90;;;;;;4934350;29;20206;-73
2021/05/05 06:32:50;;;;;;;1.30;1.13;;;8.20;99.90;;;;;;4934698;29;20317;-73
2021/05/05 06:35:17;;;;;;;1.55;1.20;;;8.20;99.90;;;;;;4934776;29;20638;-73
2021/05/05 06:37:43;;;;;;;1.10;1.10;;;8.30;99.90;;;;;;4934760;29;20210;-73
2021/05/05 06:40:11;;;;;;;2.22;1.27;;;8.40;99.90;;;;;;4934836;29;20210;-73
2021/05/05 06:42:38;;;;;;;2.55;1.75;;;8.50;99.90;;;;;;4934756;29;20555;-73
2021/05/05 06:45:06;;;;;;;2.72;1.15;;;8.80;99.90;;;;;;4934111;29;20229;-73
2021/05/05 06:47:32;;;;;;;1.67;1.20;;;9.10;99.90;;;;;;4934459;29;20245;-73
2021/05/05 06:49:58;;;;;;;2.92;2.72;;;9.10;99.90;;;;;;4934630;29;20670;-73
2021/05/05 06:52:26;;;;;;;4.80;2.05;;;9.00;99.90;;;;;;4937928;29;20237;-73
2021/05/05 06:54:52;;;;;;;1.75;0.80;;;9.00;99.90;;;;;;4938610;29;20581;-76
2021/05/05 06:57:19;;;;;;;1.20;1.00;;;8.80;99.90;;;;;;4938566;29;20344;-75
2021/05/05 06:59:45;;;;;;;3.00;1.50;;;8.70;99.90;;;;;;4938442;29;20214;-76
2021/05/05 07:02:11;;;;;;;1.92;1.55;;;8.70;99.90;;;;;;4937875;29;20347;-76
2021/05/05 07:04:37;;;;;;;1.88;1.40;;;8.60;99.90;;;;;;4938345;29;20236;-75
2021/05/05 07:07:03;;;;;;;2.10;1.38;;;8.60;99.90;;;;;;4938137;29;20213;-72
2021/05/05 07:09:30;;;;;;;2.58;1.30;;;8.50;99.90;;;;;;4938263;29;20205;-72
2021/05/05 07:11:57;;;;;;;2.10;2.10;;;8.50;99.90;;;;;;4938124;29;20264;-73
2021/05/05 07:14:23;;;;;;;2.38;1.48;;;8.50;99.90;;;;;;4937880;29;20264;-72
2021/05/05 07:16:49;;;;;;;1.60;1.35;;;8.60;99.90;;;;;;4938095;29;20229;-72
2021/05/05 07:19:15;;;;;;;1.70;1.60;;;8.70;99.90;;;;;;4938301;29;20210;-73
2021/05/05 07:21:42;;;;;;;4.00;1.60;;;8.80;99.90;;;;;;4938272;29;20233;-73
2021/05/05 07:24:08;;;;;;;1.50;1.40;;;8.90;99.90;;;;;;4938026;29;20601;-72
2021/05/05 07:26:35;;;;;;;2.42;1.73;;;9.10;99.90;;;;;;4937848;29;20214;-72
2021/05/05 07:29:02;;;;;;;3.45;2.10;;;9.20;99.90;;;;;;4938113;29;20666;-72
2021/05/05 07:31:28;;;;;;;1.90;1.45;;;9.40;99.90;;;;;;4937362;29;20707;-73
2021/05/05 07:33:56;;;;;;;4.43;1.55;;;9.50;99.90;;;;;;4938054;29;20217;-72
2021/05/05 07:36:25;;;;;;;2.42;1.50;;;9.70;99.90;;;;;;4937797;29;20708;-72
2021/05/05 07:39:06;;;;;;;1.85;1.50;;;9.80;99.90;;;;;;4937948;29;20309;-72
2021/05/05 07:42:08;;;;;;;1.55;1.40;;;9.90;99.90;;;;;;4937620;29;20272;-73
2021/05/05 07:47:19;;;;;;;4.00;1.70;;;10.00;99.90;;;;;;4937255;29;20292;-73
2021/05/05 07:49:48;;;;;;;3.05;1.80;;;9.90;99.90;;;;;;4937718;29;20674;-72
2021/05/05 07:52:15;;;;;;;2.47;1.20;;;9.80;99.90;;;;;;4937319;29;20724;-72
2021/05/05 07:54:42;;;;;;;2.30;1.63;;;9.60;99.90;;;;;;4937780;29;20202;-72
2021/05/05 07:57:08;;;;;;;2.25;1.42;;;9.50;99.90;;;;;;4937545;29;20295;-72
2021/05/05 07:59:36;;;;;;;2.40;1.40;;;9.50;99.90;;;;;;4936880;29;20709;-72
2021/05/05 08:02:02;;;;;;;1.35;1.25;;;9.60;99.90;;;;;;4936044;29;20697;-72
2021/05/05 08:04:28;;;;;;;3.47;1.60;;;9.70;99.90;;;;;;4937096;29;20230;-72
2021/05/05 08:06:54;;;;;;;3.03;1.50;;;9.80;99.90;;;;;;4936963;29;20701;-72
2021/05/05 08:09:22;;;;;;;3.15;2.22;;;9.90;99.90;;;;;;4937540;29;20627;-72
2021/05/05 08:11:48;;;;;;;3.85;1.73;;;9.90;99.90;;;;;;4937294;29;20578;-72
2021/05/05 08:14:15;;;;;;;2.42;2.00;;;9.90;99.90;;;;;;4937002;29;20212;-72
2021/05/05 08:16:42;;;;;;;2.05;1.27;;;9.90;99.90;;;;;;4936973;29;20209;-72
2021/05/05 08:19:08;;;;;;;2.70;1.75;;;9.90;99.90;;;;;;4937076;29;20265;-72
2021/05/05 08:21:34;;;;;;;4.28;1.95;;;10.00;99.90;;;;;;4937014;29;20230;-71
2021/05/05 08:24:00;;;;;;;4.22;1.98;;;10.20;99.90;;;;;;4936595;29;20221;-71
2021/05/05 08:26:30;;;;;;;3.60;2.00;;;10.40;99.90;;;;;;4936863;29;20689;-72
2021/05/05 08:28:56;;;;;;;2.95;2.33;;;10.50;99.90;;;;;;4936759;29;20226;-72
2021/05/05 08:31:22;;;;;;;2.10;1.70;;;10.50;99.90;;;;;;4936406;29;20237;-73
2021/05/05 08:33:49;;;;;;;3.35;1.67;;;10.60;99.90;;;;;;4936414;29;20568;-72
2021/05/05 08:36:15;;;;;;;3.80;1.70;;;10.60;99.90;;;;;;4936491;29;20214;-71
2021/05/05 08:38:42;;;;;;;2.28;1.10;;;10.60;99.90;;;;;;4936669;29;20210;-71
2021/05/05 08:41:09;;;;;;;4.22;3.78;;;10.50;99.90;;;;;;4936545;29;20234;-71
2021/05/05 08:43:36;;;;;;;4.53;2.50;;;10.50;99.90;;;;;;4936151;29;20361;-71
2021/05/05 08:46:05;;;;;;;5.10;1.90;;;10.60;99.90;;;;;;4936505;29;20240;-71
2021/05/05 08:48:31;;;;;;;5.38;2.10;;;10.50;99.90;;;;;;4936143;29;20213;-71
2021/05/05 08:51:00;;;;;;;3.83;1.35;;;10.60;99.90;;;;;;4936641;29;20258;-71
2021/05/05 08:53:26;;;;;;;8.98;1.58;;;10.60;99.90;;;;;;4936440;29;20265;-71
2021/05/05 08:55:52;;;;;;;3.03;2.13;;;10.40;99.90;;;;;;4936620;29;20690;-71
2021/05/05 08:58:18;;;;;;;3.25;1.27;;;10.30;99.90;;;;;;4936113;29;20280;-71
2021/05/05 09:00:45;;;;;;;2.00;1.90;;;10.10;99.90;;;;;;4935836;29;20297;-71
2021/05/05 09:03:11;;;;;;;3.08;1.60;;;10.10;99.90;;;;;;4935655;29;20214;-71
2021/05/05 09:05:49;;;;;;;4.43;1.80;;;10.10;99.90;;;;;;4936145;29;20600;-72
2021/05/05 09:08:16;;;;;;;3.72;1.70;;;10.10;99.90;;;;;;4936465;29;20209;-71
2021/05/05 09:10:57;;;;;;;1.73;1.60;;;10.10;99.90;;;;;;4936312;29;20237;-71
2021/05/05 09:13:52;;;;;;;3.10;2.10;;;10.20;99.90;;;;;;4935854;29;20300;-71
2021/05/05 09:16:21;;;;;;;5.03;1.88;;;10.40;99.90;;;;;;4935579;29;20206;-71
2021/05/05 09:18:53;;;;;;;6.60;1.70;;;10.50;99.90;;;;;;4935765;29;20214;-72
2021/05/05 09:21:37;;;;;;;2.88;1.80;;;10.70;99.90;;;;;;4935595;29;20396;-71
2021/05/05 09:24:22;;;;;;;4.82;2.13;;;10.80;99.90;;;;;;4936167;29;20304;-71
2021/05/05 09:26:50;;;;;;;6.22;2.05;;;10.80;99.90;;;;;;4935942;29;20216;-71
2021/05/05 09:29:17;;;;;;;1.95;1.85;;;10.90;99.90;;;;;;4935534;29;20281;-73
2021/05/05 09:31:44;;;;;;;5.13;2.20;;;11.00;99.90;;;;;;4935470;29;20641;-71
2021/05/05 09:34:11;;;;;;;2.53;1.60;;;11.10;99.90;;;;;;4935786;29;20210;-71
2021/05/05 09:36:39;;;;;;;2.25;1.75;;;11.10;99.90;;;;;;4935882;29;20246;-71
2021/05/05 09:39:08;;;;;;;2.85;1.50;;;11.00;99.90;;;;;;4935712;29;20237;-71
2021/05/05 09:41:37;;;;;;;1.70;1.45;;;10.90;99.90;;;;;;4935451;29;20234;-70
2021/05/05 09:44:05;;;;;;;2.58;1.55;;;10.80;99.90;;;;;;4935297;29;20681;-70
2021/05/05 09:46:41;;;;;;;1.63;1.23;;;10.80;99.90;;;;;;4934853;29;20210;-71
2021/05/05 09:49:26;;;;;;;1.60;1.50;;;10.90;99.90;;;;;;4935527;29;20296;-72
2021/05/05 09:51:56;;;;;;;2.20;2.03;;;11.10;99.90;;;;;;4935571;29;20241;-71
2021/05/05 09:54:24;;;;;;;9.27;2.10;;;11.20;99.90;;;;;;4935246;29;20210;-72
2021/05/05 09:56:51;;;;;;;6.43;1.95;;;11.50;99.90;;;;;;4935307;29;20222;-72
2021/05/05 09:59:19;;;;;;;1.95;1.48;;;11.60;99.90;;;;;;4935119;29;20265;-72
2021/05/05 10:01:59;;;;;;;2.00;1.45;;;11.80;99.90;;;;;;4935019;29;20241;-73
2021/05/05 10:04:26;;;;;;;3.13;1.88;;;11.70;99.90;;;;;;4935169;29;20686;-73
2021/05/05 10:06:57;;;;;;;4.32;1.80;;;11.50;99.90;;;;;;4935196;29;20551;-73
2021/05/05 10:09:24;;;;;;;1.70;1.60;;;11.20;99.90;;;;;;4935075;29;20272;-73
2021/05/05 10:11:51;;;;;;;2.40;1.67;;;11.20;99.90;;;;;;4935080;29;20714;-74
2021/05/05 10:14:19;;;;;;;6.10;2.63;;;11.30;99.90;;;;;;4934484;29;20225;-73
2021/05/05 10:16:48;;;;;;;1.70;1.60;;;11.40;99.90;;;;;;4934611;29;20655;-74
2021/05/05 10:19:18;;;;;;;1.70;1.60;;;11.40;99.90;;;;;;4934905;29;20690;-73
2021/05/05 10:21:51;;;;;;;2.35;1.75;;;11.40;99.90;;;;;;4935183;29;20225;-74
2021/05/05 10:24:19;;;;;;;4.28;1.20;;;11.30;99.90;;;;;;4934888;29;20206;-74
2021/05/05 10:26:47;;;;;;;2.10;1.13;;;11.20;99.90;;;;;;4934604;29;20210;-74
2021/05/05 10:29:14;;;;;;;7.20;2.28;;;11.00;99.90;;;;;;4935251;29;20600;-74
2021/05/05 10:31:41;;;;;;;2.08;1.58;;;10.80;99.90;;;;;;4934287;29;20647;-73
2021/05/05 10:34:18;;;;;;;1.25;1.15;;;10.70;99.90;;;;;;4934880;29;20216;-73
2021/05/05 10:36:51;;;;;;;1.90;1.80;;;10.40;99.90;;;;;;4934893;29;20692;-74
2021/05/05 10:39:36;;;;;;;3.60;1.70;;;10.10;99.90;;;;;;4935342;29;20523;-73
2021/05/05 10:42:15;;;;;;;2.35;2.17;;;9.70;99.90;;;;;;4934672;29;20340;-73
2021/05/05 10:44:45;;;;;;;3.40;2.10;;;9.60;99.90;;;;;;4934731;29;20229;-74
2021/05/05 10:47:21;;;;;;;1.52;1.45;;;9.70;99.90;;;;;;4934629;29;20268;-73
2021/05/05 10:50:14;;;;;;;6.63;2.05;;;10.00;99.90;;;;;;4934849;29;20281;-73
2021/05/05 10:53:06;;;;;;;2.95;1.98;;;10.10;99.90;;;;;;4934363;29;20292;-73
2021/05/05 10:55:41;;;;;;;4.30;3.55;;;10.30;99.90;;;;;;4934800;29;20210;-74
2021/05/05 10:58:09;;;;;;;3.42;1.55;;;10.40;99.90;;;;;;4934935;29;20213;-73
2021/05/05 11:01:00;;;;;;;4.68;1.83;;;10.50;99.90;;;;;;4934175;29;20230;-73
2021/05/05 11:04:01;;;;;;;4.50;2.40;;;10.60;99.90;;;;;;4933986;29;20224;-74
2021/05/05 11:06:50;;;;;;;2.95;2.10;;;10.80;99.90;;;;;;4934463;29;20380;-73
2021/05/05 11:09:45;;;;;;;3.03;1.40;;;11.00;99.90;;;;;;4934532;29;20217;-71
2021/05/05 11:12:45;;;;;;;4.50;2.10;;;11.10;99.90;;;;;;4934501;29;20276;-69
2021/05/05 11:15:13;;;;;;;5.40;1.75;;;11.20;99.90;;;;;;4934329;29;20248;-70
2021/05/05 11:17:40;;;;;;;3.20;1.80;;;11.40;99.90;;;;;;4934153;29;20217;-70
2021/05/05 11:20:07;;;;;;;3.15;2.13;;;11.60;99.90;;;;;;4934602;29;20214;-70
2021/05/05 11:22:48;;;;;;;2.15;1.38;;;11.60;99.90;;;;;;4934948;29;20213;-71
2021/05/05 11:25:25;;;;;;;2.15;1.95;;;11.60;99.90;;;;;;4934874;29;20387;-70
2021/05/05 11:27:56;;;;;;;1.40;1.08;;;11.70;99.90;;;;;;4934789;29;20210;-71
2021/05/05 11:30:42;;;;;;;1.40;1.40;;;11.40;99.90;;;;;;4934206;29;20212;-72
2021/05/05 11:33:11;;;;;;;1.02;1.02;;;10.90;99.90;;;;;;4935882;29;20293;-71
2021/05/05 11:35:38;;;;;;;2.25;1.90;;;10.70;99.90;;;;;;4937651;29;20222;-72
2021/05/05 11:38:20;;;;;;;1.60;1.50;;;10.70;99.90;;;;;;4941557;29;20206;-71
2021/05/05 11:40:55;;;;;;;1.58;1.17;;;10.80;99.90;;;;;;4940367;29;20238;-71
2021/05/05 11:43:22;;;;;;;1.38;1.27;;;10.90;99.90;;;;;;4940860;29;20218;-71
2021/05/05 11:45:54;;;;;;;1.58;1.30;;;10.90;99.90;;;;;;4941949;29;20229;-72
2021/05/05 11:48:33;;;;;;;1.80;1.70;;;10.80;99.90;;;;;;4941732;29;20225;-71
2021/05/05 11:51:00;;;;;;;2.05;1.10;;;10.70;99.90;;;;;;4943580;29;20229;-72
2021/05/05 11:53:32;;;;;;;1.70;1.70;;;10.60;99.90;;;;;;4942139;29;20296;-71
2021/05/05 11:55:58;;;;;;;2.95;1.40;;;10.40;99.90;;;;;;4942843;29;20290;-72
2021/05/05 11:58:24;;;;;;;1.00;1.00;;;10.30;99.90;;;;;;4942763;29;20213;-71
2021/05/05 12:00:52;;;;;;;1.58;0.82;;;10.30;99.90;;;;;;4936977;29;20242;-71
2021/05/05 12:03:23;;;;;;;1.10;1.10;;;10.20;99.90;;;;;;4936867;29;20209;-71
2021/05/05 12:05:54;;;;;;;1.63;1.00;;;10.20;99.90;;;;;;4936927;29;20638;-71
2021/05/05 12:08:23;;;;;;;2.53;1.02;;;10.20;99.90;;;;;;4937139;29;20214;-72
2021/05/05 12:10:51;;;;;;;1.38;1.27;;;10.20;99.90;;;;;;4937051;29;20297;-71
2021/05/05 12:13:19;;;;;;;1.10;1.10;;;10.10;99.90;;;;;;4936849;29;20218;-72
2021/05/05 12:15:56;;;;;;;1.60;1.50;;;10.20;99.90;;;;;;4937387;29;20212;-71
2021/05/05 12:18:28;;;;;;;1.45;1.45;;;10.00;99.90;;;;;;4936385;29;20245;-71
2021/05/05 12:21:02;;;;;;;3.35;2.67;;;9.90;99.90;;;;;;4937053;29;20233;-68
2021/05/05 12:23:40;;;;;;;1.45;1.42;;;9.90;99.90;;;;;;4936649;29;20241;-68
2021/05/05 12:26:17;;;;;;;3.30;1.80;;;9.90;99.90;;;;;;4937273;29;20237;-69
2021/05/05 12:28:44;;;;;;;1.75;1.10;;;9.90;99.90;;;;;;4936572;29;20569;-68
2021/05/05 12:31:13;;;;;;;2.85;1.35;;;10.00;99.90;;;;;;4936324;29;20230;-67
2021/05/05 12:33:41;;;;;;;2.15;1.42;;;10.10;99.90;;;;;;4936101;29;20241;-69
2021/05/05 12:36:11;;;;;;;2.90;1.48;;;10.10;99.90;;;;;;4937064;29;20247;-67
2021/05/05 12:38:39;;;;;;;1.35;1.35;;;10.20;99.90;;;;;;4936574;29;20228;-68
2021/05/05 12:41:07;;;;;;;1.90;1.70;;;10.30;99.90;;;;;;4936311;29;20579;-70
2021/05/05 12:43:34;;;;;;;1.50;1.35;;;10.40;99.90;;;;;;4936282;29;20595;-68
2021/05/05 12:46:01;;;;;;;1.27;0.93;;;10.40;99.90;;;;;;4936177;29;20244;-68
2021/05/05 12:48:35;;;;;;;1.25;1.25;;;10.50;99.90;;;;;;4935507;29;20296;-67
2021/05/05 12:51:07;;;;;;;0.90;0.90;;;10.40;99.90;;;;;;4936228;29;20233;-68
2021/05/05 12:53:56;;;;;;;2.92;1.10;;;10.50;99.90;;;;;;4936285;29;20218;-69
2021/05/05 12:56:39;;;;;;;0.82;0.82;;;10.50;99.90;;;;;;4936698;29;20208;-70
2021/05/05 12:59:05;;;;;;;1.00;1.00;;;10.60;99.90;;;;;;4936384;29;20214;-71
2021/05/05 13:01:32;;;;;;;0.90;0.90;;;10.70;99.90;;;;;;4935148;29;20293;-71
2021/05/05 13:03:59;;;;;;;1.38;1.00;;;10.70;99.90;;;;;;4936028;29;20687;-70
2021/05/05 13:06:37;;;;;;;0.73;0.73;;;10.70;99.90;;;;;;4936096;29;20237;-71
2021/05/05 13:09:20;;;;;;;1.00;1.00;;;10.70;99.90;;;;;;4936378;29;20216;-70
2021/05/05 13:11:49;;;;;;;0.93;0.88;;;10.70;99.90;;;;;;4936279;29;20232;-71
2021/05/05 13:14:35;;;;;;;0.80;0.80;;;10.80;99.90;;;;;;4935636;29;20213;-71
2021/05/05 13:17:16;;;;;;;0.77;0.77;;;10.90;99.90;;;;;;4935755;29;20209;-71
2021/05/05 13:31:16;;;;;;;1.55;1.45;;;11.20;99.90;;;;;;4935273;29;20360;-71
2021/05/05 13:33:42;;;;;;;2.42;1.25;;;11.10;99.90;;;;;;4935302;29;20301;-71
2021/05/05 13:36:09;;;;;;;1.15;1.15;;;11.00;99.90;;;;;;4935696;29;20210;-71
2021/05/05 13:38:36;;;;;;;1.60;1.60;;;10.90;99.90;;;;;;4935710;29;20221;-71
2021/05/05 13:41:07;;;;;;;1.80;1.80;;;10.80;99.90;;;;;;4935608;29;20274;-70
2021/05/05 13:43:37;;;;;;;1.80;1.80;;;10.70;99.90;;;;;;4935088;29;20213;-71
2021/05/05 13:46:09;;;;;;;2.00;1.90;;;10.70;99.90;;;;;;4935281;29;20233;-70
2021/05/05 13:48:43;;;;;;;2.42;1.45;;;10.70;99.90;;;;;;4935064;29;20224;-70
2021/05/05 13:51:12;;;;;;;2.08;2.08;;;10.50;99.90;;;;;;4935089;29;20233;-70
2021/05/05 13:53:43;;;;;;;1.50;1.50;;;10.30;99.90;;;;;;4934967;29;20210;-69
2021/05/05 13:56:10;;;;;;;2.10;1.88;;;10.00;99.90;;;;;;4935190;29;20221;-70
2021/05/05 13:58:36;;;;;;;1.92;1.80;;;9.90;99.90;;;;;;4934962;29;20253;-70
2021/05/05 14:01:02;;;;;;;1.40;1.30;;;9.90;99.90;;;;;;4933789;29;20245;-70
2021/05/05 14:03:28;;;;;;;4.25;0.93;;;9.80;99.90;;;;;;4934710;29;20217;-70
2021/05/05 14:05:57;;;;;;;2.25;1.00;;;9.60;99.90;;;;;;4935266;29;20229;-70
2021/05/05 14:08:23;;;;;;;1.40;1.40;;;9.50;99.90;;;;;;4935290;29;20209;-70
2021/05/05 14:10:50;;;;;;;1.60;1.25;;;9.40;99.90;;;;;;4935068;29;20234;-70
2021/05/05 14:13:18;;;;;;;1.73;1.33;;;9.40;99.90;;;;;;4935176;29;20269;-70
2021/05/05 14:15:44;;;;;;;1.50;1.10;;;9.60;99.90;;;;;;4934944;29;20210;-70
2021/05/05 14:18:11;;;;;;;1.35;1.25;;;9.70;99.90;;;;;;4934514;29;20206;-70
2021/05/05 14:20:37;;;;;;;1.05;1.02;;;9.70;99.90;;;;;;4934878;29;20273;-71
2021/05/05 14:23:05;;;;;;;1.45;1.35;;;9.80;99.90;;;;;;4934744;29;20210;-71
2021/05/05 14:25:31;;;;;;;1.48;1.30;;;9.90;99.90;;;;;;4934948;29;20229;-75
2021/05/05 14:28:00;;;;;;;1.40;1.38;;;9.80;99.90;;;;;;4935036;29;20213;-75
2021/05/05 14:30:28;;;;;;;1.42;1.42;;;9.80;99.90;;;;;;4934591;29;20229;-74
2021/05/05 14:32:58;;;;;;;1.33;1.33;;;9.70;99.90;;;;;;4934579;29;20277;-72
2021/05/05 14:35:24;;;;;;;1.23;1.23;;;9.60;99.90;;;;;;4934878;29;20202;-70
2021/05/05 14:37:54;;;;;;;2.65;2.45;;;9.60;99.90;;;;;;4934616;29;20221;-71
2021/05/05 14:40:22;;;;;;;2.70;1.98;;;9.70;99.90;;;;;;4934859;29;20273;-71
2021/05/05 14:42:52;;;;;;;2.30;2.10;;;9.60;99.90;;;;;;4934532;29;20579;-71
2021/05/05 14:45:29;;;;;;;3.60;2.50;;;9.50;99.90;;;;;;4934198;29;20348;-71
2021/05/05 14:48:04;;;;;;;4.53;2.00;;;9.40;99.90;;;;;;4934162;29;20209;-71
2021/05/05 14:50:31;;;;;;;1.63;1.63;;;9.40;99.90;;;;;;4934474;29;20232;-71
2021/05/05 14:52:57;;;;;;;2.40;2.17;;;9.30;99.90;;;;;;4934671;29;20213;-71
2021/05/05 14:55:23;;;;;;;1.60;1.60;;;9.30;99.90;;;;;;4934801;29;20213;-70
2021/05/05 14:57:56;;;;;;;1.77;1.67;;;9.30;99.90;;;;;;4934588;29;20217;-71
2021/05/05 15:00:23;;;;;;;3.45;2.15;;;9.30;99.90;;;;;;4934071;29;20217;-70
2021/05/05 15:02:49;;;;;;;1.67;1.60;;;9.20;99.90;;;;;;4933935;29;20269;-70
2021/05/05 15:05:20;;;;;;;4.00;1.30;;;9.10;99.90;;;;;;4934636;29;20238;-69
2021/05/05 15:07:46;;;;;;;1.75;1.60;;;9.00;99.90;;;;;;4934365;29;20304;-69
2021/05/05 15:10:18;;;;;;;1.45;1.45;;;9.00;99.90;;;;;;4934351;29;20301;-70
2021/05/05 15:12:49;;;;;;;2.35;2.20;;;9.00;99.90;;;;;;4936342;29;20213;-71
2021/05/05 15:15:33;;;;;;;3.00;1.90;;;9.20;99.90;;;;;;4937216;29;20206;-70
2021/05/05 15:29:30;;;;;;;2.05;1.55;;;9.50;99.90;;;;;;4914641;29;20205;-69
2021/05/05 15:37:38;;;;;;;1.50;1.40;;;9.60;99.90;;;;;;4927518;29;20244;-69
2021/05/05 15:40:12;;;;;;;1.40;1.20;;;9.50;99.90;;;;;;4937556;29;20730;-69
2021/05/05 15:42:39;;;;;;;2.50;2.30;;;9.50;99.90;;;;;;4937479;29;20400;-69
2021/05/05 15:45:10;;;;;;;1.30;1.30;;;9.50;99.90;;;;;;4936945;29;20367;-70
2021/05/05 15:47:37;;;;;;;2.45;2.00;;;9.50;99.90;;;;;;4937323;29;20214;-69
2021/05/05 15:50:09;;;;;;;3.03;2.20;;;9.50;99.90;;;;;;4937324;29;20226;-71
2021/05/05 15:52:39;;;;;;;2.75;2.10;;;9.50;99.90;;;;;;4937432;29;20708;-71
2021/05/05 15:55:07;;;;;;;1.55;1.45;;;9.50;99.90;;;;;;4937231;29;20210;-72
2021/05/05 15:57:37;;;;;;;4.80;4.25;;;9.60;99.90;;;;;;4937311;29;20213;-71
2021/05/05 16:00:12;;;;;;;7.82;6.80;;;9.60;99.90;;;;;;4937632;29;20685;-72
2021/05/05 16:02:58;;;;;;;2.60;2.45;;;9.60;99.90;;;;;;4936688;29;20240;-72
2021/05/05 16:14:02;;;;;;;6.53;4.80;;;9.50;99.90;;;;;;4896969;29;20318;-72
2021/05/05 16:16:28;;;;;;;2.92;2.75;;;9.50;99.90;;;;;;4896381;29;20203;-70
2021/05/05 16:18:57;;;;;;;2.70;2.35;;;9.60;99.90;;;;;;4917145;29;20229;-70
2021/05/05 16:21:30;;;;;;;6.97;1.98;;;9.60;99.90;;;;;;4936995;29;20253;-71
2021/05/05 16:24:51;;;;;;;2.40;1.85;;;9.60;99.90;;;;;;4936177;29;20213;-71
2021/05/05 16:30:14;;;;;;;2.03;1.63;;;9.50;99.90;;;;;;4936840;29;20220;-71
2021/05/05 16:44:01;;;;;;;3.70;1.38;;;9.10;99.90;;;;;;4937840;29;20637;-69
2021/05/05 16:46:54;;;;;;;2.38;1.20;;;9.10;99.90;;;;;;4938621;29;20241;-70
2021/05/05 16:49:30;;;;;;;3.65;1.48;;;9.00;99.90;;;;;;4936988;29;20210;-69
2021/05/05 16:52:10;;;;;;;4.80;2.38;;;9.00;99.90;;;;;;4936983;29;20241;-73
2021/05/05 16:54:37;;;;;;;4.88;1.73;;;8.90;99.90;;;;;;4936844;29;20289;-69
2021/05/05 16:57:08;;;;;;;3.20;2.10;;;8.70;99.90;;;;;;4936428;29;20210;-68
2021/05/05 17:00:04;;;;;;;2.75;1.95;;;8.50;99.90;;;;;;4935750;29;20348;-68
2021/05/05 17:05:41;;;;;;;4.78;2.03;;;8.10;99.90;;;;;;4936422;29;20232;-68
2021/05/05 17:08:12;;;;;;;3.55;2.13;;;8.10;99.90;;;;;;4935880;29;20228;-71
2021/05/05 17:10:38;;;;;;;3.80;2.13;;;8.00;99.90;;;;;;4936188;29;20241;-74
2021/05/05 17:13:06;;;;;;;2.13;2.03;;;8.00;99.90;;;;;;4936040;29;20284;-74
2021/05/05 17:15:34;;;;;;;3.47;1.50;;;7.90;99.90;;;;;;4935606;29;20277;-74
2021/05/05 17:18:07;;;;;;;2.67;1.40;;;7.70;99.90;;;;;;4935493;29;20214;-75
2021/05/05 17:20:50;;;;;;;0.80;0.80;;;7.50;99.90;;;;;;4935877;29;20333;-75
2021/05/05 17:23:21;;;;;;;1.17;0.95;;;7.30;99.90;;;;;;4935721;29;20261;-75
2021/05/05 17:25:58;;;;;;;0.77;0.77;;;7.30;99.90;;;;;;4935795;29;20229;-76
2021/05/05 17:28:48;;;;;;;1.30;1.30;;;7.30;99.90;;;;;;4935692;29;20220;-75
2021/05/05 17:45:05;;;;;;;5.50;2.80;;;7.50;99.90;;;;;;4934917;29;20234;-72
2021/05/05 18:10:05;;;;;;;13.02;2.90;;;7.70;99.90;;;;;;4934675;29;20209;-71
2021/05/05 18:15:20;;;;;;;13.35;3.80;;;7.70;99.90;;;;;;4925536;29;20205;-73
2021/05/05 18:17:51;;;;;;;10.38;5.55;;;7.70;99.90;;;;;;4934652;29;20293;-72
2021/05/05 18:20:19;;;;;;;3.80;3.33;;;7.70;99.90;;;;;;4934459;29;20308;-72
2021/05/05 18:22:53;;;;;;;5.85;3.47;;;7.60;99.90;;;;;;4934427;29;20206;-72
2021/05/05 18:25:32;;;;;;;6.78;2.60;;;7.70;99.90;;;;;;4934426;29;20706;-72
2021/05/05 18:28:06;;;;;;;6.00;3.25;;;7.70;99.90;;;;;;4934435;29;20214;-72
2021/05/05 18:30:34;;;;;;;6.55;2.88;;;7.70;99.90;;;;;;4934145;29;20229;-72
2021/05/05 18:33:01;;;;;;;6.40;3.60;;;7.70;99.90;;;;;;4933969;29;20741;-72
2021/05/05 18:35:27;;;;;;;6.72;2.53;;;7.70;99.90;;;;;;4934393;29;20210;-72
2021/05/05 18:37:54;;;;;;;8.88;2.70;;;7.70;99.90;;;;;;4934304;29;20671;-72
2021/05/05 18:40:22;;;;;;;4.93;3.38;;;7.70;99.90;;;;;;4934589;29;20678;-75
2021/05/05 18:42:53;;;;;;;3.38;2.55;;;7.70;99.90;;;;;;4934251;29;20220;-76
2021/05/05 19:07:35;;;;;;;2.35;2.13;;;6.50;99.90;;;;;;4938096;29;20336;-75